Time;durP1;ratioP1;P1;durP2;ratioP2;P2;SDS_P1;SDS_P2;PMS_P1;PMS_P2;Temp;Humidity;BMP_temperature;BMP_pressure;BME280_temperature;BME280_humidity;BME280_pressure;Samples;Min_cycle;Max_cycle;Signal;HPM_P1;HPM_P2
2023/12/16 00:00:15;;;;;;;;;;;;;;;;;;5074950;28;20335;-25
2023/12/16 00:02:41;;;;;;;;;;;;;;;;;;5074308;28;20335;-26
2023/12/16 00:05:08;;;;;;;;;;;;;;;;;;5074912;28;19921;-23
2023/12/16 00:07:34;;;;;;;;;;;;;;;;;;5074814;28;19924;-21
2023/12/16 00:10:00;;;;;;;;;;;;;;;;;;5074592;28;20259;-24
2023/12/16 00:12:26;;;;;;;;;;;;;;;;;;5075085;28;19908;-25
2023/12/16 00:14:52;;;;;;;;;;;;;;;;;;5078673;28;19912;-28
2023/12/16 00:17:18;;;;;;;;;;;;;;;;;;5061016;28;19912;-27
2023/12/16 00:19:45;;;;;;;;;;;;;;;;;;5078657;28;19987;-26
2023/12/16 00:22:11;;;;;;;;;;;;;;;;;;5078739;28;19991;-24
2023/12/16 00:24:37;;;;;;;;;;;;;;;;;;5078856;28;20366;-22
2023/12/16 00:27:03;;;;;;;;;;;;;;;;;;5078606;28;20224;-29
2023/12/16 00:29:29;;;;;;;;;;;;;;;;;;5078537;28;19917;-26
2023/12/16 00:31:55;;;;;;;;;;;;;;;;;;5078319;28;19909;-23
2023/12/16 00:34:20;;;;;;;;;;;;;;;;;;5078574;28;19916;-24
2023/12/16 00:36:48;;;;;;;;;;;;;;;;;;5078186;28;19909;-24
2023/12/16 00:39:14;;;;;;;;;;;;;;;;;;5078127;28;20339;-23
2023/12/16 00:41:40;;;;;;;;;;;;;;;;;;5078153;28;19915;-31
2023/12/16 00:44:06;;;;;;;;;;;;;;;;;;5078077;28;19908;-26
2023/12/16 00:46:32;;;;;;;;;;;;;;;;;;5078072;28;19994;-24
2023/12/16 00:48:59;;;;;;;;;;;;;;;;;;5078070;28;19967;-24
2023/12/16 00:51:25;;;;;;;;;;;;;;;;;;5078224;28;19909;-24
2023/12/16 00:53:51;;;;;;;;;;;;;;;;;;5078041;28;19935;-26
2023/12/16 00:56:17;;;;;;;;;;;;;;;;;;5060938;28;19908;-28
2023/12/16 00:58:43;;;;;;;;;;;;;;;;;;5078094;28;20223;-26
2023/12/16 01:01:09;;;;;;;;;;;;;;;;;;5078093;28;19920;-21
2023/12/16 01:03:37;;;;;;;;;;;;;;;;;;5056537;28;20245;-25
2023/12/16 01:06:03;;;;;;;;;;;;;;;;;;5057822;28;20271;-24
2023/12/16 01:08:29;;;;;;;;;;;;;;;;;;5057774;28;20011;-26
2023/12/16 01:10:55;;;;;;;;;;;;;;;;;;5057582;28;20284;-28
2023/12/16 01:13:21;;;;;;;;;;;;;;;;;;5057467;28;19917;-22
2023/12/16 01:15:47;;;;;;;;;;;;;;;;;;5057792;28;19917;-26
2023/12/16 01:18:13;;;;;;;;;;;;;;;;;;5057493;28;19940;-29
2023/12/16 01:20:39;;;;;;;;;;;;;;;;;;5057440;28;20328;-22
2023/12/16 01:23:05;;;;;;;;;;;;;;;;;;5057312;28;19909;-23
2023/12/16 01:25:31;;;;;;;;;;;;;;;;;;5057543;28;19966;-26
2023/12/16 01:27:57;;;;;;;;;;;;;;;;;;5057522;28;19909;-22
2023/12/16 01:30:24;;;;;;;;;;;;;;;;;;5057267;28;19909;-26
2023/12/16 01:32:51;;;;;;;;;;;;;;;;;;5057096;28;20003;-27
2023/12/16 01:35:17;;;;;;;;;;;;;;;;;;5057151;28;19916;-26
2023/12/16 01:37:43;;;;;;;;;;;;;;;;;;5057366;28;19916;-22
2023/12/16 01:40:09;;;;;;;;;;;;;;;;;;5057143;28;19959;-26
2023/12/16 01:42:35;;;;;;;;;;;;;;;;;;5057035;28;19909;-24
2023/12/16 01:45:01;;;;;;;;;;;;;;;;;;5057047;28;20417;-26
2023/12/16 01:47:27;;;;;;;;;;;;;;;;;;5056973;28;19916;-29
2023/12/16 01:49:53;;;;;;;;;;;;;;;;;;5056949;28;19909;-27
2023/12/16 01:52:19;;;;;;;;;;;;;;;;;;5055851;28;19920;-25
2023/12/16 01:54:45;;;;;;;;;;;;;;;;;;5055744;28;19912;-21
2023/12/16 01:57:11;;;;;;;;;;;;;;;;;;5056826;28;20233;-26
2023/12/16 01:59:37;;;;;;;;;;;;;;;;;;5057021;28;19908;-26
2023/12/16 02:02:03;;;;;;;;;;;;;;;;;;5056643;28;19916;-26
2023/12/16 02:04:29;;;;;;;;;;;;;;;;;;5073652;28;19924;-26
2023/12/16 02:06:54;;;;;;;;;;;;;;;;;;5076929;28;19959;-25
2023/12/16 02:09:21;;;;;;;;;;;;;;;;;;5076882;28;20004;-23
2023/12/16 02:11:47;;;;;;;;;;;;;;;;;;5076461;28;19909;-22
2023/12/16 02:14:13;;;;;;;;;;;;;;;;;;5076725;28;19927;-24
2023/12/16 02:16:40;;;;;;;;;;;;;;;;;;5076460;28;19985;-25
2023/12/16 02:19:06;;;;;;;;;;;;;;;;;;5076348;28;19909;-25
2023/12/16 02:21:32;;;;;;;;;;;;;;;;;;5076641;28;19909;-28
2023/12/16 02:23:58;;;;;;;;;;;;;;;;;;5076565;28;19913;-23
2023/12/16 02:26:24;;;;;;;;;;;;;;;;;;5076291;28;19908;-29
2023/12/16 02:28:51;;;;;;;;;;;;;;;;;;5076231;28;19908;-28
2023/12/16 02:31:17;;;;;;;;;;;;;;;;;;5076213;28;19919;-25
2023/12/16 02:33:43;;;;;;;;;;;;;;;;;;5075962;28;20236;-23
2023/12/16 02:36:09;;;;;;;;;;;;;;;;;;5075449;28;19944;-24
2023/12/16 02:38:35;;;;;;;;;;;;;;;;;;5075977;28;19935;-23
2023/12/16 02:41:00;;;;;;;;;;;;;;;;;;5076166;28;19935;-28
2023/12/16 02:43:26;;;;;;;;;;;;;;;;;;5075829;28;19909;-25
2023/12/16 02:45:52;;;;;;;;;;;;;;;;;;5075903;28;19909;-24
2023/12/16 02:48:18;;;;;;;;;;;;;;;;;;5075788;28;19923;-29
2023/12/16 02:50:44;;;;;;;;;;;;;;;;;;5075780;28;19997;-29
2023/12/16 02:53:10;;;;;;;;;;;;;;;;;;5057945;28;19927;-28
2023/12/16 02:55:36;;;;;;;;;;;;;;;;;;5075925;28;19948;-25
2023/12/16 02:58:02;;;;;;;;;;;;;;;;;;5075914;28;19919;-27
2023/12/16 03:00:28;;;;;;;;;;;;;;;;;;5075647;28;20263;-29
2023/12/16 03:02:54;;;;;;;;;;;;;;;;;;5075646;28;19916;-23
2023/12/16 03:05:20;;;;;;;;;;;;;;;;;;5075597;28;19931;-26
2023/12/16 03:07:46;;;;;;;;;;;;;;;;;;5075443;28;19908;-25
2023/12/16 03:10:12;;;;;;;;;;;;;;;;;;5075602;28;19912;-25
2023/12/16 03:12:38;;;;;;;;;;;;;;;;;;5075206;28;19912;-23
2023/12/16 03:15:04;;;;;;;;;;;;;;;;;;5075263;28;20324;-22
2023/12/16 03:17:31;;;;;;;;;;;;;;;;;;5075511;28;20278;-27
2023/12/16 03:19:57;;;;;;;;;;;;;;;;;;5075213;28;19952;-26
2023/12/16 03:22:23;;;;;;;;;;;;;;;;;;5075329;28;20370;-25
2023/12/16 03:24:49;;;;;;;;;;;;;;;;;;5075071;28;19913;-23
2023/12/16 03:27:15;;;;;;;;;;;;;;;;;;5075080;28;19943;-24
2023/12/16 03:29:41;;;;;;;;;;;;;;;;;;5075336;28;19939;-26
2023/12/16 03:32:07;;;;;;;;;;;;;;;;;;5074907;28;19909;-26
2023/12/16 03:34:33;;;;;;;;;;;;;;;;;;5075178;28;19917;-22
2023/12/16 03:36:59;;;;;;;;;;;;;;;;;;5075039;28;19995;-29
2023/12/16 03:39:25;;;;;;;;;;;;;;;;;;5075059;28;20271;-28
2023/12/16 03:41:51;;;;;;;;;;;;;;;;;;5074965;28;19935;-23
2023/12/16 03:44:17;;;;;;;;;;;;;;;;;;5074971;28;19966;-24
2023/12/16 03:46:43;;;;;;;;;;;;;;;;;;5074796;28;19915;-22
2023/12/16 03:49:09;;;;;;;;;;;;;;;;;;5074311;28;20271;-23
2023/12/16 03:51:35;;;;;;;;;;;;;;;;;;5075053;28;19947;-26
2023/12/16 03:54:01;;;;;;;;;;;;;;;;;;5074618;28;19956;-25
2023/12/16 03:56:27;;;;;;;;;;;;;;;;;;5074792;28;19908;-23
2023/12/16 03:58:53;;;;;;;;;;;;;;;;;;5074741;28;19908;-25
2023/12/16 04:01:19;;;;;;;;;;;;;;;;;;5075212;28;19913;-21
2023/12/16 04:03:45;;;;;;;;;;;;;;;;;;5074458;28;20378;-23
2023/12/16 04:06:11;;;;;;;;;;;;;;;;;;5074707;28;19919;-22
2023/12/16 04:08:37;;;;;;;;;;;;;;;;;;5074637;28;19909;-25
2023/12/16 04:11:03;;;;;;;;;;;;;;;;;;5074591;28;19908;-26
2023/12/16 04:13:29;;;;;;;;;;;;;;;;;;5074817;28;19922;-21
2023/12/16 04:15:55;;;;;;;;;;;;;;;;;;5074886;28;20251;-31
2023/12/16 04:18:21;;;;;;;;;;;;;;;;;;5074546;28;19909;-22
2023/12/16 04:20:47;;;;;;;;;;;;;;;;;;5074555;28;19918;-22
2023/12/16 04:23:13;;;;;;;;;;;;;;;;;;5074445;28;20003;-25
2023/12/16 04:25:40;;;;;;;;;;;;;;;;;;5074470;28;19919;-26
2023/12/16 04:28:06;;;;;;;;;;;;;;;;;;5074662;28;19913;-26
2023/12/16 04:30:32;;;;;;;;;;;;;;;;;;5074431;28;19915;-25
2023/12/16 04:32:58;;;;;;;;;;;;;;;;;;5074365;28;19955;-25
2023/12/16 04:35:24;;;;;;;;;;;;;;;;;;5074636;28;20366;-26
2023/12/16 04:37:50;;;;;;;;;;;;;;;;;;5074389;28;20254;-25
2023/12/16 04:40:16;;;;;;;;;;;;;;;;;;5056712;28;19942;-23
2023/12/16 04:42:42;;;;;;;;;;;;;;;;;;5074246;28;19916;-26
2023/12/16 04:45:08;;;;;;;;;;;;;;;;;;5074257;28;19912;-23
2023/12/16 04:47:34;;;;;;;;;;;;;;;;;;5074240;28;20007;-25
2023/12/16 04:50:00;;;;;;;;;;;;;;;;;;5074259;28;20003;-28
2023/12/16 04:52:26;;;;;;;;;;;;;;;;;;5074461;28;19974;-27
2023/12/16 04:54:52;;;;;;;;;;;;;;;;;;5074195;28;19920;-27
2023/12/16 04:57:18;;;;;;;;;;;;;;;;;;5074178;28;19912;-25
2023/12/16 04:59:45;;;;;;;;;;;;;;;;;;5076548;28;19970;-24
2023/12/16 05:02:11;;;;;;;;;;;;;;;;;;5077764;28;20313;-24
2023/12/16 05:04:37;;;;;;;;;;;;;;;;;;5077907;28;19920;-23
2023/12/16 05:07:03;;;;;;;;;;;;;;;;;;5078004;28;20377;-27
2023/12/16 05:09:29;;;;;;;;;;;;;;;;;;5077675;28;20367;-28
2023/12/16 05:11:55;;;;;;;;;;;;;;;;;;5077568;28;19963;-24
2023/12/16 05:14:20;;;;;;;;;;;;;;;;;;5077586;28;19913;-25
2023/12/16 05:16:47;;;;;;;;;;;;;;;;;;5077849;28;19952;-27
2023/12/16 05:19:13;;;;;;;;;;;;;;;;;;5077572;28;19908;-25
2023/12/16 05:21:38;;;;;;;;;;;;;;;;;;5077558;28;19912;-23
2023/12/16 05:24:04;;;;;;;;;;;;;;;;;;5077705;28;19920;-28
2023/12/16 05:26:31;;;;;;;;;;;;;;;;;;5077427;28;19966;-28
2023/12/16 05:28:57;;;;;;;;;;;;;;;;;;5077401;28;19909;-25
2023/12/16 05:31:23;;;;;;;;;;;;;;;;;;5077484;28;20008;-28
2023/12/16 05:33:49;;;;;;;;;;;;;;;;;;5077491;28;19920;-23
2023/12/16 05:36:15;;;;;;;;;;;;;;;;;;5077233;28;20019;-30
2023/12/16 05:38:41;;;;;;;;;;;;;;;;;;5077492;28;19946;-22
2023/12/16 05:41:07;;;;;;;;;;;;;;;;;;5077161;28;19974;-23
2023/12/16 05:43:33;;;;;;;;;;;;;;;;;;5077068;28;19908;-26
2023/12/16 05:45:59;;;;;;;;;;;;;;;;;;5077079;28;19974;-23
2023/12/16 05:48:25;;;;;;;;;;;;;;;;;;5077329;28;19919;-26
2023/12/16 05:50:51;;;;;;;;;;;;;;;;;;5076978;28;19909;-27
2023/12/16 05:53:17;;;;;;;;;;;;;;;;;;5076862;28;20259;-22
2023/12/16 05:55:47;;;;;;;;;;;;;;;;;;5076895;28;19920;-29
2023/12/16 05:58:13;;;;;;;;;;;;;;;;;;5077123;28;19936;-27
2023/12/16 06:00:39;;;;;;;;;;;;;;;;;;5076820;28;19917;-24
2023/12/16 06:03:05;;;;;;;;;;;;;;;;;;5076577;28;19917;-26
2023/12/16 06:05:31;;;;;;;;;;;;;;;;;;5077232;28;19951;-21
2023/12/16 06:07:56;;;;;;;;;;;;;;;;;;5076719;28;20362;-25
2023/12/16 06:10:22;;;;;;;;;;;;;;;;;;5076033;28;20315;-21
2023/12/16 06:12:48;;;;;;;;;;;;;;;;;;5076490;28;20267;-24
2023/12/16 06:15:14;;;;;;;;;;;;;;;;;;5076787;28;19908;-25
2023/12/16 06:17:40;;;;;;;;;;;;;;;;;;5076487;28;19916;-26
2023/12/16 06:20:06;;;;;;;;;;;;;;;;;;5076438;28;19999;-24
2023/12/16 06:22:33;;;;;;;;;;;;;;;;;;5076331;28;20292;-24
2023/12/16 06:24:59;;;;;;;;;;;;;;;;;;5076226;28;19962;-28
2023/12/16 06:27:25;;;;;;;;;;;;;;;;;;5076258;28;19913;-25
2023/12/16 06:29:51;;;;;;;;;;;;;;;;;;5076295;28;20301;-27
2023/12/16 06:32:17;;;;;;;;;;;;;;;;;;5076069;28;19913;-31
2023/12/16 06:34:43;;;;;;;;;;;;;;;;;;5076285;28;20062;-25
2023/12/16 06:37:09;;;;;;;;;;;;;;;;;;5076008;28;19912;-24
2023/12/16 06:39:35;;;;;;;;;;;;;;;;;;5076046;28;20028;-28
2023/12/16 06:42:01;;;;;;;;;;;;;;;;;;5075915;28;19915;-24
2023/12/16 06:44:26;;;;;;;;;;;;;;;;;;5076130;28;19951;-25
2023/12/16 06:46:52;;;;;;;;;;;;;;;;;;5076125;28;19919;-26
2023/12/16 06:49:18;;;;;;;;;;;;;;;;;;5075810;28;20377;-25
2023/12/16 06:51:44;;;;;;;;;;;;;;;;;;5076009;28;19909;-23
2023/12/16 06:54:10;;;;;;;;;;;;;;;;;;5075683;28;19912;-23
2023/12/16 06:56:36;;;;;;;;;;;;;;;;;;5075602;28;20296;-24
2023/12/16 06:59:02;;;;;;;;;;;;;;;;;;5075583;28;19909;-26
2023/12/16 07:01:28;;;;;;;;;;;;;;;;;;5075630;28;19965;-25
2023/12/16 07:03:54;;;;;;;;;;;;;;;;;;5075308;28;19920;-25
2023/12/16 07:06:20;;;;;;;;;;;;;;;;;;5075776;28;19940;-28
2023/12/16 07:08:46;;;;;;;;;;;;;;;;;;5075455;28;20351;-28
2023/12/16 07:11:12;;;;;;;;;;;;;;;;;;5076379;28;19908;-27
2023/12/16 07:13:38;;;;;;;;;;;;;;;;;;5075419;28;20237;-24
2023/12/16 07:16:04;;;;;;;;;;;;;;;;;;5075825;28;19915;-23
2023/12/16 07:18:30;;;;;;;;;;;;;;;;;;5075255;28;19909;-27
2023/12/16 07:20:56;;;;;;;;;;;;;;;;;;5075296;28;19915;-25
2023/12/16 07:23:23;;;;;;;;;;;;;;;;;;5075093;28;19969;-24
2023/12/16 07:25:50;;;;;;;;;;;;;;;;;;5057609;28;19947;-23
2023/12/16 07:28:16;;;;;;;;;;;;;;;;;;5075443;28;19991;-23
2023/12/16 07:30:42;;;;;;;;;;;;;;;;;;5075416;28;20301;-24
2023/12/16 07:33:08;;;;;;;;;;;;;;;;;;5074948;28;19924;-26
2023/12/16 07:35:35;;;;;;;;;;;;;;;;;;5075323;28;19916;-24
2023/12/16 07:38:01;;;;;;;;;;;;;;;;;;5074892;28;19920;-24
2023/12/16 07:40:27;;;;;;;;;;;;;;;;;;5074928;28;19909;-26
2023/12/16 07:42:53;;;;;;;;;;;;;;;;;;5074884;28;19955;-27
2023/12/16 07:45:19;;;;;;;;;;;;;;;;;;5074932;28;19913;-21
2023/12/16 07:47:45;;;;;;;;;;;;;;;;;;5074862;28;19908;-22
2023/12/16 07:50:11;;;;;;;;;;;;;;;;;;5075089;28;19958;-26
2023/12/16 07:52:37;;;;;;;;;;;;;;;;;;5074780;28;19909;-25
2023/12/16 07:55:03;;;;;;;;;;;;;;;;;;5074767;28;19913;-26
2023/12/16 07:57:29;;;;;;;;;;;;;;;;;;5074781;28;19912;-24
2023/12/16 07:59:55;;;;;;;;;;;;;;;;;;5074658;28;19919;-24
2023/12/16 08:02:21;;;;;;;;;;;;;;;;;;5074591;28;19969;-24
2023/12/16 08:04:47;;;;;;;;;;;;;;;;;;5075207;28;19925;-24
2023/12/16 08:07:13;;;;;;;;;;;;;;;;;;5074706;28;19909;-27
2023/12/16 08:09:39;;;;;;;;;;;;;;;;;;5074697;28;19913;-25
2023/12/16 08:12:05;;;;;;;;;;;;;;;;;;5057583;28;20278;-23
2023/12/16 08:14:31;;;;;;;;;;;;;;;;;;5074595;28;19912;-25
2023/12/16 08:16:57;;;;;;;;;;;;;;;;;;5056932;28;19908;-26
2023/12/16 08:19:23;;;;;;;;;;;;;;;;;;5074828;28;19948;-28
2023/12/16 08:21:49;;;;;;;;;;;;;;;;;;5074470;28;20313;-26
2023/12/16 08:24:15;;;;;;;;;;;;;;;;;;5074727;28;19908;-22
2023/12/16 08:26:41;;;;;;;;;;;;;;;;;;5074992;28;19919;-24
2023/12/16 08:29:07;;;;;;;;;;;;;;;;;;5074442;28;19966;-29
2023/12/16 08:31:33;;;;;;;;;;;;;;;;;;5074636;28;19919;-27
2023/12/16 08:33:59;;;;;;;;;;;;;;;;;;5075816;28;19916;-24
2023/12/16 08:36:25;;;;;;;;;;;;;;;;;;5078390;28;20005;-32
2023/12/16 08:38:51;;;;;;;;;;;;;;;;;;5078356;28;19916;-22
2023/12/16 08:41:17;;;;;;;;;;;;;;;;;;5078413;28;19908;-25
2023/12/16 08:43:43;;;;;;;;;;;;;;;;;;5078516;28;20336;-27
2023/12/16 08:46:11;;;;;;;;;;;;;;;;;;5078528;28;19962;-25
2023/12/16 08:48:39;;;;;;;;;;;;;;;;;;5078178;28;19919;-25
2023/12/16 08:51:05;;;;;;;;;;;;;;;;;;5078134;28;19909;-26
2023/12/16 08:53:31;;;;;;;;;;;;;;;;;;5077907;28;20369;-24
2023/12/16 08:55:57;;;;;;;;;;;;;;;;;;5078003;28;19926;-22
2023/12/16 08:58:23;;;;;;;;;;;;;;;;;;5078204;28;19919;-24
2023/12/16 09:00:49;;;;;;;;;;;;;;;;;;5078206;28;19932;-24
2023/12/16 09:03:15;;;;;;;;;;;;;;;;;;5077617;28;19921;-25
2023/12/16 09:05:41;;;;;;;;;;;;;;;;;;5077862;28;19974;-27
2023/12/16 09:08:07;;;;;;;;;;;;;;;;;;5078011;28;20344;-24
2023/12/16 09:10:33;;;;;;;;;;;;;;;;;;5077733;28;20035;-23
2023/12/16 09:12:59;;;;;;;;;;;;;;;;;;5077445;28;19919;-26
2023/12/16 09:15:25;;;;;;;;;;;;;;;;;;5077921;28;20003;-20
2023/12/16 09:17:51;;;;;;;;;;;;;;;;;;5077634;28;20293;-22
2023/12/16 09:20:17;;;;;;;;;;;;;;;;;;5077588;28;20201;-25
2023/12/16 09:22:43;;;;;;;;;;;;;;;;;;5059894;28;20211;-25
2023/12/16 09:25:09;;;;;;;;;;;;;;;;;;5077581;28;19908;-28
2023/12/16 09:27:35;;;;;;;;;;;;;;;;;;5077520;28;20259;-27
2023/12/16 09:30:02;;;;;;;;;;;;;;;;;;5059743;28;19908;-25
2023/12/16 09:32:28;;;;;;;;;;;;;;;;;;5077569;28;19969;-21
2023/12/16 09:34:54;;;;;;;;;;;;;;;;;;5077478;28;20343;-22
2023/12/16 09:37:20;;;;;;;;;;;;;;;;;;5077210;28;20258;-26
2023/12/16 09:39:46;;;;;;;;;;;;;;;;;;5077158;28;19908;-31
2023/12/16 09:42:14;;;;;;;;;;;;;;;;;;5077114;28;20343;-23
2023/12/16 09:44:40;;;;;;;;;;;;;;;;;;5076554;28;19919;-26
2023/12/16 09:47:11;;;;;;;;;;;;;;;;;;5076617;28;19909;-25
2023/12/16 09:49:38;;;;;;;;;;;;;;;;;;5076990;28;20347;-28
2023/12/16 09:52:04;;;;;;;;;;;;;;;;;;5076874;28;20332;-23
2023/12/16 09:54:30;;;;;;;;;;;;;;;;;;5076897;28;19969;-26
2023/12/16 09:56:56;;;;;;;;;;;;;;;;;;5077175;28;20362;-23
2023/12/16 09:59:22;;;;;;;;;;;;;;;;;;5077223;28;20007;-22
2023/12/16 10:01:48;;;;;;;;;;;;;;;;;;5076804;28;19909;-25
2023/12/16 10:04:14;;;;;;;;;;;;;;;;;;5076623;28;19921;-21
2023/12/16 10:06:40;;;;;;;;;;;;;;;;;;5076764;28;19919;-22
2023/12/16 10:09:06;;;;;;;;;;;;;;;;;;5076690;28;19908;-25
2023/12/16 10:11:32;;;;;;;;;;;;;;;;;;5076679;28;20244;-26
2023/12/16 10:13:58;;;;;;;;;;;;;;;;;;5076421;28;19946;-28
2023/12/16 10:16:24;;;;;;;;;;;;;;;;;;5076540;28;19923;-25
2023/12/16 10:18:50;;;;;;;;;;;;;;;;;;5076467;28;19999;-24
2023/12/16 10:21:16;;;;;;;;;;;;;;;;;;5076386;28;19919;-28
2023/12/16 10:23:42;;;;;;;;;;;;;;;;;;5076588;28;19958;-25
2023/12/16 10:26:08;;;;;;;;;;;;;;;;;;5076343;28;19915;-24
2023/12/16 10:28:34;;;;;;;;;;;;;;;;;;5076531;28;20333;-27
2023/12/16 10:31:00;;;;;;;;;;;;;;;;;;5076144;28;19908;-25
2023/12/16 10:33:27;;;;;;;;;;;;;;;;;;5076077;28;19913;-28
2023/12/16 10:35:53;;;;;;;;;;;;;;;;;;5077160;28;19912;-22
2023/12/16 10:38:19;;;;;;;;;;;;;;;;;;5076132;28;20251;-23
2023/12/16 10:40:45;;;;;;;;;;;;;;;;;;5076132;28;19944;-28
2023/12/16 10:43:10;;;;;;;;;;;;;;;;;;5076029;28;19961;-26
2023/12/16 10:45:36;;;;;;;;;;;;;;;;;;5075979;28;20393;-21
2023/12/16 10:48:02;;;;;;;;;;;;;;;;;;5076153;28;20247;-24
2023/12/16 10:50:28;;;;;;;;;;;;;;;;;;5076106;28;19912;-26
2023/12/16 10:52:54;;;;;;;;;;;;;;;;;;5075825;28;19908;-22
2023/12/16 10:55:20;;;;;;;;;;;;;;;;;;5075676;28;20374;-24
2023/12/16 10:57:46;;;;;;;;;;;;;;;;;;5075314;28;19970;-28
2023/12/16 11:00:12;;;;;;;;;;;;;;;;;;5075883;28;20243;-26
2023/12/16 11:02:38;;;;;;;;;;;;;;;;;;5057748;28;19913;-25
2023/12/16 11:05:04;;;;;;;;;;;;;;;;;;5075883;28;19913;-27
2023/12/16 11:07:30;;;;;;;;;;;;;;;;;;5075551;28;19916;-24
2023/12/16 11:09:56;;;;;;;;;;;;;;;;;;5075500;28;19915;-25
2023/12/16 11:12:22;;;;;;;;;;;;;;;;;;5075589;28;19931;-25
2023/12/16 11:14:48;;;;;;;;;;;;;;;;;;5075392;28;19920;-24
2023/12/16 11:17:14;;;;;;;;;;;;;;;;;;5075664;28;19962;-22
2023/12/16 11:19:40;;;;;;;;;;;;;;;;;;5075589;28;20239;-25
2023/12/16 11:22:06;;;;;;;;;;;;;;;;;;5075483;28;19939;-26
2023/12/16 11:24:32;;;;;;;;;;;;;;;;;;5075209;28;20394;-22
2023/12/16 11:26:58;;;;;;;;;;;;;;;;;;5075406;28;19915;-27
2023/12/16 11:29:24;;;;;;;;;;;;;;;;;;5075416;28;19912;-23
2023/12/16 11:31:50;;;;;;;;;;;;;;;;;;5074962;28;19908;-22
2023/12/16 11:34:16;;;;;;;;;;;;;;;;;;5075019;28;19974;-21
2023/12/16 11:36:44;;;;;;;;;;;;;;;;;;5074605;28;20251;-22
2023/12/16 11:39:10;;;;;;;;;;;;;;;;;;5075049;28;19909;-24
2023/12/16 11:41:36;;;;;;;;;;;;;;;;;;5074925;28;19905;-25
2023/12/16 11:44:02;;;;;;;;;;;;;;;;;;5074806;28;19909;-25
2023/12/16 11:46:28;;;;;;;;;;;;;;;;;;5074959;28;19924;-25
2023/12/16 11:48:54;;;;;;;;;;;;;;;;;;5074945;28;19936;-26
2023/12/16 11:51:20;;;;;;;;;;;;;;;;;;5074950;28;19904;-24
2023/12/16 11:53:46;;;;;;;;;;;;;;;;;;5074767;28;19912;-22
2023/12/16 11:56:12;;;;;;;;;;;;;;;;;;5074897;28;19916;-25
2023/12/16 11:58:38;;;;;;;;;;;;;;;;;;5075154;28;20320;-25
2023/12/16 12:01:04;;;;;;;;;;;;;;;;;;5074664;28;19912;-27
2023/12/16 12:03:30;;;;;;;;;;;;;;;;;;5074565;28;19924;-27
2023/12/16 12:05:56;;;;;;;;;;;;;;;;;;5074733;28;19908;-22
2023/12/16 12:08:22;;;;;;;;;;;;;;;;;;5073946;28;19999;-24
2023/12/16 12:10:48;;;;;;;;;;;;;;;;;;5074663;28;19958;-30
2023/12/16 12:13:14;;;;;;;;;;;;;;;;;;5074575;28;19916;-27
2023/12/16 12:15:40;;;;;;;;;;;;;;;;;;5074865;28;19995;-25
2023/12/16 12:18:06;;;;;;;;;;;;;;;;;;5074819;28;20324;-25
2023/12/16 12:20:32;;;;;;;;;;;;;;;;;;5074569;28;19909;-26
2023/12/16 12:22:58;;;;;;;;;;;;;;;;;;5074641;28;19916;-23
2023/12/16 12:25:24;;;;;;;;;;;;;;;;;;5074838;28;19999;-26
2023/12/16 12:27:50;;;;;;;;;;;;;;;;;;5074814;28;19909;-30
2023/12/16 12:30:19;;;;;;;;;;;;;;;;;;5074509;28;20049;-28
2023/12/16 12:32:45;;;;;;;;;;;;;;;;;;5074681;28;20082;-27
2023/12/16 12:35:11;;;;;;;;;;;;;;;;;;5074441;28;20335;-28
2023/12/16 12:37:37;;;;;;;;;;;;;;;;;;5074456;28;19970;-23
2023/12/16 12:40:05;;;;;;;;;;;;;;;;;;5074398;28;19916;-22
2023/12/16 12:42:31;;;;;;;;;;;;;;;;;;5074331;28;19909;-24
2023/12/16 12:44:58;;;;;;;;;;;;;;;;;;5074385;28;20421;-23
2023/12/16 12:47:24;;;;;;;;;;;;;;;;;;5074805;28;19908;-26
2023/12/16 12:49:50;;;;;;;;;;;;;;;;;;5074308;28;20409;-22
2023/12/16 12:52:16;;;;;;;;;;;;;;;;;;5074255;28;20235;-22
2023/12/16 12:54:42;;;;;;;;;;;;;;;;;;5074423;28;19936;-24
2023/12/16 12:57:08;;;;;;;;;;;;;;;;;;5074247;28;19917;-25
2023/12/16 12:59:34;;;;;;;;;;;;;;;;;;5074246;28;19913;-22
2023/12/16 13:02:00;;;;;;;;;;;;;;;;;;5074104;28;20001;-30
2023/12/16 13:04:26;;;;;;;;;;;;;;;;;;5074032;28;19927;-22
2023/12/16 13:06:52;;;;;;;;;;;;;;;;;;5074146;28;19916;-24
2023/12/16 13:09:18;;;;;;;;;;;;;;;;;;5074208;28;20010;-20
2023/12/16 13:11:44;;;;;;;;;;;;;;;;;;5074183;28;20197;-25
2023/12/16 13:14:10;;;;;;;;;;;;;;;;;;5074013;28;19938;-22
2023/12/16 13:16:36;;;;;;;;;;;;;;;;;;5074159;28;20322;-22
2023/12/16 13:19:02;;;;;;;;;;;;;;;;;;5074061;28;19909;-25
2023/12/16 13:21:28;;;;;;;;;;;;;;;;;;5077369;28;19908;-27
2023/12/16 13:23:54;;;;;;;;;;;;;;;;;;5077713;28;19965;-29
2023/12/16 13:26:20;;;;;;;;;;;;;;;;;;5077523;28;19924;-22
2023/12/16 13:28:46;;;;;;;;;;;;;;;;;;5077726;28;20250;-23
2023/12/16 13:31:12;;;;;;;;;;;;;;;;;;5077645;28;20328;-22
2023/12/16 13:33:38;;;;;;;;;;;;;;;;;;5077265;28;19912;-22
2023/12/16 13:36:04;;;;;;;;;;;;;;;;;;5077372;28;19915;-27
2023/12/16 13:38:30;;;;;;;;;;;;;;;;;;5077612;28;19919;-24
2023/12/16 13:40:56;;;;;;;;;;;;;;;;;;5077296;28;20354;-22
2023/12/16 13:43:22;;;;;;;;;;;;;;;;;;5077121;28;19919;-24
2023/12/16 13:45:49;;;;;;;;;;;;;;;;;;5077222;28;20267;-23
2023/12/16 13:48:15;;;;;;;;;;;;;;;;;;5077150;28;20375;-24
2023/12/16 13:50:41;;;;;;;;;;;;;;;;;;5077153;28;19947;-26
2023/12/16 13:53:07;;;;;;;;;;;;;;;;;;5077227;28;20362;-25
2023/12/16 13:55:33;;;;;;;;;;;;;;;;;;5077060;28;19958;-23
2023/12/16 13:57:59;;;;;;;;;;;;;;;;;;5077261;28;20224;-26
2023/12/16 14:00:25;;;;;;;;;;;;;;;;;;5076930;28;20007;-25
2023/12/16 14:02:51;;;;;;;;;;;;;;;;;;5076807;28;20359;-25
2023/12/16 14:05:17;;;;;;;;;;;;;;;;;;5076803;28;19908;-26
2023/12/16 14:07:43;;;;;;;;;;;;;;;;;;5077001;28;19920;-24
2023/12/16 14:10:09;;;;;;;;;;;;;;;;;;5076717;28;19942;-27
2023/12/16 14:12:35;;;;;;;;;;;;;;;;;;5076592;28;20354;-26
2023/12/16 14:15:01;;;;;;;;;;;;;;;;;;5058809;28;20074;-27
2023/12/16 14:17:28;;;;;;;;;;;;;;;;;;5076858;28;19915;-26
2023/12/16 14:19:53;;;;;;;;;;;;;;;;;;5076444;28;19962;-28
2023/12/16 14:22:20;;;;;;;;;;;;;;;;;;5058750;28;19931;-24
2023/12/16 14:24:46;;;;;;;;;;;;;;;;;;5076712;28;20346;-25
2023/12/16 14:27:12;;;;;;;;;;;;;;;;;;5076681;28;19999;-24
2023/12/16 14:29:38;;;;;;;;;;;;;;;;;;5076327;28;20390;-21
2023/12/16 14:32:04;;;;;;;;;;;;;;;;;;5075526;28;19974;-27
2023/12/16 14:34:30;;;;;;;;;;;;;;;;;;5076450;28;20370;-23
2023/12/16 14:36:56;;;;;;;;;;;;;;;;;;5076198;28;19919;-26
2023/12/16 14:39:22;;;;;;;;;;;;;;;;;;5058451;28;19967;-21
2023/12/16 14:41:48;;;;;;;;;;;;;;;;;;5075983;28;19915;-21
2023/12/16 14:44:14;;;;;;;;;;;;;;;;;;5075986;28;19908;-26
2023/12/16 14:46:40;;;;;;;;;;;;;;;;;;5076218;28;20228;-27
2023/12/16 14:49:06;;;;;;;;;;;;;;;;;;5075955;28;19916;-25
2023/12/16 14:51:32;;;;;;;;;;;;;;;;;;5075904;28;19908;-23
2023/12/16 14:53:58;;;;;;;;;;;;;;;;;;5058086;28;19923;-23
2023/12/16 14:56:24;;;;;;;;;;;;;;;;;;5075784;28;19908;-23
2023/12/16 14:58:50;;;;;;;;;;;;;;;;;;5075770;28;19974;-27
2023/12/16 15:01:16;;;;;;;;;;;;;;;;;;5075742;28;19908;-23
2023/12/16 15:03:42;;;;;;;;;;;;;;;;;;5075551;28;19920;-22
2023/12/16 15:06:08;;;;;;;;;;;;;;;;;;5075924;28;19912;-25
2023/12/16 15:08:35;;;;;;;;;;;;;;;;;;5075839;28;19912;-21
2023/12/16 15:11:01;;;;;;;;;;;;;;;;;;5075819;28;19914;-22
2023/12/16 15:13:27;;;;;;;;;;;;;;;;;;5075350;28;19916;-26
2023/12/16 15:15:53;;;;;;;;;;;;;;;;;;5075439;28;19909;-26
2023/12/16 15:18:19;;;;;;;;;;;;;;;;;;5075621;28;19924;-24
2023/12/16 15:20:45;;;;;;;;;;;;;;;;;;5075284;28;20257;-28
2023/12/16 15:23:11;;;;;;;;;;;;;;;;;;5075247;28;19995;-22
2023/12/16 15:25:37;;;;;;;;;;;;;;;;;;5075470;28;20420;-22
2023/12/16 15:28:03;;;;;;;;;;;;;;;;;;5075185;28;19912;-25
2023/12/16 15:30:29;;;;;;;;;;;;;;;;;;5075168;28;19912;-22
2023/12/16 15:32:55;;;;;;;;;;;;;;;;;;5075063;28;19913;-24
2023/12/16 15:35:21;;;;;;;;;;;;;;;;;;5075088;28;19948;-26
2023/12/16 15:37:47;;;;;;;;;;;;;;;;;;5075313;28;19909;-25
2023/12/16 15:40:13;;;;;;;;;;;;;;;;;;5075011;28;19955;-29
2023/12/16 15:42:39;;;;;;;;;;;;;;;;;;5057303;28;19955;-26
2023/12/16 15:45:05;;;;;;;;;;;;;;;;;;5057376;28;19908;-23
2023/12/16 15:47:31;;;;;;;;;;;;;;;;;;5075032;28;19913;-22
2023/12/16 15:49:58;;;;;;;;;;;;;;;;;;5074880;28;19909;-25
2023/12/16 15:52:24;;;;;;;;;;;;;;;;;;5074783;28;19965;-25
2023/12/16 15:54:51;;;;;;;;;;;;;;;;;;5075039;28;19917;-25
2023/12/16 15:57:17;;;;;;;;;;;;;;;;;;5075048;28;19909;-23
2023/12/16 15:59:43;;;;;;;;;;;;;;;;;;5075066;28;19909;-25
2023/12/16 16:02:09;;;;;;;;;;;;;;;;;;5074696;28;20358;-24
2023/12/16 16:04:35;;;;;;;;;;;;;;;;;;5074591;28;19921;-23
2023/12/16 16:07:02;;;;;;;;;;;;;;;;;;5074997;28;19909;-25
2023/12/16 16:09:28;;;;;;;;;;;;;;;;;;5074724;28;20245;-23
2023/12/16 16:11:54;;;;;;;;;;;;;;;;;;5074616;28;19931;-26
2023/12/16 16:14:20;;;;;;;;;;;;;;;;;;5074616;28;19919;-25
2023/12/16 16:16:46;;;;;;;;;;;;;;;;;;5074904;28;20279;-21
2023/12/16 16:19:12;;;;;;;;;;;;;;;;;;5074721;28;19912;-29
2023/12/16 16:21:38;;;;;;;;;;;;;;;;;;5074599;28;19987;-22
2023/12/16 16:24:04;;;;;;;;;;;;;;;;;;5074474;28;19909;-24
2023/12/16 16:26:30;;;;;;;;;;;;;;;;;;5074602;28;19913;-24
2023/12/16 16:28:58;;;;;;;;;;;;;;;;;;5074474;28;19919;-25
2023/12/16 16:31:24;;;;;;;;;;;;;;;;;;5074472;28;19912;-24
2023/12/16 16:33:51;;;;;;;;;;;;;;;;;;5074602;28;19927;-23
2023/12/16 16:36:17;;;;;;;;;;;;;;;;;;5074390;28;19909;-25